createdAt,value
2023-02-14T00:00:49.545Z,18.30
2023-02-14T00:03:16.408Z,21.50
2023-02-14T00:05:43.256Z,20.90
2023-02-14T00:08:10.251Z,19.90
2023-02-14T00:10:37.017Z,20.07
2023-02-14T00:13:04.265Z,20.67
2023-02-14T00:15:31.047Z,21.83
2023-02-14T00:18:00.710Z,22.10
2023-02-14T00:20:28.810Z,17.07
2023-02-14T00:22:55.602Z,20.13
2023-02-14T00:25:22.757Z,15.17
2023-02-14T00:27:49.475Z,13.63
2023-02-14T00:30:16.433Z,14.53
2023-02-14T00:32:43.274Z,18.90
2023-02-14T00:35:10.809Z,15.17
2023-02-14T00:37:38.069Z,10.90
2023-02-14T00:40:06.198Z,12.63
2023-02-14T00:42:33.122Z,13.50
2023-02-14T00:45:00.007Z,15.83
2023-02-14T00:47:26.818Z,15.33
2023-02-14T00:49:53.590Z,17.43
2023-02-14T00:52:20.390Z,18.20
2023-02-14T00:54:47.135Z,19.70
2023-02-14T00:57:14.153Z,20.90
2023-02-14T00:59:41.035Z,21.43
2023-02-14T01:02:07.842Z,19.50
2023-02-14T01:04:34.802Z,21.47
2023-02-14T01:07:01.531Z,25.53
2023-02-14T01:09:28.250Z,26.80
2023-02-14T01:11:55.087Z,22.20
2023-02-14T01:14:21.835Z,23.47
2023-02-14T01:16:48.702Z,25.03
2023-02-14T01:19:15.525Z,19.90
2023-02-14T01:21:42.365Z,20.27
2023-02-14T01:24:09.626Z,19.93
2023-02-14T01:26:36.736Z,22.87
2023-02-14T01:29:04.905Z,25.23
2023-02-14T01:31:33.765Z,23.37
2023-02-14T01:34:00.884Z,22.83
2023-02-14T01:36:33.687Z,27.60
2023-02-14T01:39:03.614Z,27.03
2023-02-14T01:41:32.947Z,23.03
2023-02-14T01:44:05.976Z,22.43
2023-02-14T01:46:37.543Z,20.60
2023-02-14T01:49:28.437Z,25.10
2023-02-14T01:52:19.110Z,26.43
2023-02-14T01:54:58.762Z,19.80
2023-02-14T01:57:30.814Z,23.67
2023-02-14T02:00:20.738Z,26.53
2023-02-14T02:02:47.478Z,25.17
2023-02-14T02:05:16.217Z,25.00
2023-02-14T02:07:43.461Z,21.70
2023-02-14T02:10:10.846Z,17.60
2023-02-14T02:12:38.760Z,17.17
2023-02-14T02:15:07.205Z,16.70
2023-02-14T02:17:48.452Z,12.60
2023-02-14T02:20:33.946Z,16.77
2023-02-14T02:23:00.601Z,11.97
2023-02-14T02:26:08.042Z,14.87
2023-02-14T02:29:07.614Z,20.43
2023-02-14T02:31:58.507Z,20.63
2023-02-14T02:35:10.520Z,20.83
2023-02-14T02:37:46.562Z,21.80
2023-02-14T02:40:31.566Z,19.43
2023-02-14T02:43:16.424Z,21.80
2023-02-14T02:46:22.806Z,21.57
2023-02-14T02:49:03.300Z,19.33
2023-02-14T02:52:02.967Z,18.50
2023-02-14T02:54:43.590Z,21.57
2023-02-14T02:57:18.501Z,17.53
2023-02-14T02:59:46.477Z,24.23
2023-02-14T03:02:23.860Z,22.37
2023-02-14T03:05:02.046Z,20.90
2023-02-14T03:07:39.724Z,20.30
2023-02-14T03:10:14.180Z,19.80
2023-02-14T03:13:18.466Z,17.70
2023-02-14T03:16:03.190Z,18.60
2023-02-14T03:18:50.717Z,18.17
2023-02-14T03:21:50.322Z,17.73
2023-02-14T03:24:39.292Z,19.03
2023-02-14T03:27:38.800Z,18.20
2023-02-14T03:30:17.832Z,20.53
2023-02-14T03:32:50.552Z,18.10
2023-02-14T03:35:31.436Z,17.83
2023-02-14T03:38:04.561Z,15.90
2023-02-14T03:40:37.851Z,18.50
2023-02-14T03:43:17.533Z,18.30
2023-02-14T03:46:17.021Z,19.17
2023-02-14T03:48:46.996Z,19.40
2023-02-14T03:51:16.077Z,18.93
2023-02-14T03:53:47.883Z,18.60
2023-02-14T03:56:21.393Z,18.37
2023-02-14T03:58:55.924Z,17.37
2023-02-14T04:01:35.811Z,19.97
2023-02-14T04:04:05.607Z,17.80
2023-02-14T04:06:32.389Z,17.97
2023-02-14T04:08:59.182Z,17.47
2023-02-14T04:11:25.990Z,16.40
2023-02-14T04:13:52.833Z,18.87
2023-02-14T04:16:19.597Z,18.67
2023-02-14T04:19:05.001Z,16.60
2023-02-14T04:21:31.721Z,15.30
2023-02-14T04:23:58.459Z,12.70
2023-02-14T04:26:25.258Z,16.47
2023-02-14T04:28:52.014Z,16.90
2023-02-14T04:31:18.911Z,14.97
2023-02-14T04:33:48.054Z,14.77
2023-02-14T04:36:15.054Z,16.27
2023-02-14T04:38:41.748Z,20.33
2023-02-14T04:41:08.465Z,20.77
2023-02-14T04:43:35.256Z,17.87
2023-02-14T04:46:01.949Z,21.07
2023-02-14T04:48:28.648Z,22.13
2023-02-14T04:50:56.756Z,18.83
2023-02-14T04:53:23.483Z,18.37
2023-02-14T04:55:50.356Z,17.60
2023-02-14T04:58:17.894Z,19.40
2023-02-14T05:00:44.887Z,16.47
2023-02-14T05:03:11.684Z,21.90
2023-02-14T05:05:38.410Z,20.83
2023-02-14T05:08:05.213Z,22.63
2023-02-14T05:10:32.048Z,20.97
2023-02-14T05:12:58.819Z,17.97
2023-02-14T05:15:25.535Z,19.73
2023-02-14T05:17:52.279Z,19.20
2023-02-14T05:20:19.116Z,20.50
2023-02-14T05:22:45.882Z,20.40
2023-02-14T05:25:12.614Z,20.40
2023-02-14T05:27:39.330Z,19.50
2023-02-14T05:30:06.782Z,18.73
2023-02-14T05:32:33.645Z,20.23
2023-02-14T05:35:01.284Z,20.80
2023-02-14T05:37:28.242Z,15.37
2023-02-14T05:39:55.040Z,22.27
2023-02-14T05:42:21.877Z,18.80
2023-02-14T05:44:50.195Z,21.90
2023-02-14T05:47:16.874Z,20.60
2023-02-14T05:49:43.716Z,23.77
2023-02-14T05:52:10.545Z,25.43
2023-02-14T05:54:37.311Z,21.23
2023-02-14T05:57:03.996Z,24.53
2023-02-14T05:59:30.727Z,22.97
2023-02-14T06:01:57.499Z,21.73
2023-02-14T06:04:24.411Z,18.33
2023-02-14T06:06:51.161Z,20.80
2023-02-14T06:09:19.739Z,20.53
2023-02-14T06:11:46.487Z,24.80
2023-02-14T06:14:13.222Z,22.30
2023-02-14T06:16:40.068Z,23.10
2023-02-14T06:19:07.036Z,22.43
2023-02-14T06:21:34.138Z,23.97
2023-02-14T06:24:00.908Z,20.63
2023-02-14T06:26:28.120Z,26.23
2023-02-14T06:28:56.244Z,23.77
2023-02-14T06:31:23.993Z,20.87
2023-02-14T06:33:52.340Z,21.10
2023-02-14T06:36:19.805Z,23.73
2023-02-14T06:38:48.020Z,21.67
2023-02-14T06:41:17.170Z,21.90
2023-02-14T06:43:45.931Z,22.20
2023-02-14T06:46:12.656Z,19.53
2023-02-14T06:48:39.810Z,18.57
2023-02-14T06:51:07.035Z,19.30
2023-02-14T06:53:33.836Z,17.87
2023-02-14T06:56:00.678Z,18.60
2023-02-14T06:58:27.450Z,20.93
2023-02-14T07:00:58.514Z,20.70
2023-02-14T07:03:26.795Z,18.93
2023-02-14T07:05:54.303Z,19.93
2023-02-14T07:08:21.297Z,18.50
2023-02-14T07:10:48.091Z,18.50
2023-02-14T07:13:14.785Z,21.37
2023-02-14T07:15:41.533Z,19.33
2023-02-14T07:18:11.696Z,20.07
2023-02-14T07:20:38.518Z,20.57
2023-02-14T07:23:05.384Z,20.53
2023-02-14T07:25:32.384Z,23.30
2023-02-14T07:27:59.309Z,23.37
2023-02-14T07:30:26.227Z,25.03
2023-02-14T07:32:53.028Z,22.13
2023-02-14T07:35:19.854Z,23.67
2023-02-14T07:37:46.546Z,24.87
2023-02-14T07:40:15.292Z,24.73
2023-02-14T07:42:43.473Z,24.07
2023-02-14T07:45:21.111Z,25.83
2023-02-14T07:47:50.572Z,27.77
2023-02-14T07:50:17.452Z,21.93
2023-02-14T07:52:45.355Z,27.20
2023-02-14T07:55:12.301Z,25.70
2023-02-14T07:57:39.379Z,24.43
2023-02-14T08:00:07.282Z,23.67
2023-02-14T08:02:34.142Z,23.57
2023-02-14T08:05:00.930Z,24.07
2023-02-14T08:07:27.742Z,21.57
2023-02-14T08:09:54.487Z,22.77
2023-02-14T08:12:39.948Z,20.00
2023-02-14T08:15:25.341Z,20.93
2023-02-14T08:17:52.056Z,21.80
2023-02-14T08:20:18.836Z,24.17
2023-02-14T08:22:45.529Z,20.97
2023-02-14T08:25:12.274Z,23.27
2023-02-14T08:27:38.977Z,24.87
2023-02-14T08:30:06.327Z,21.37
2023-02-14T08:32:33.156Z,26.00
2023-02-14T08:35:00.016Z,26.37
2023-02-14T08:37:26.727Z,28.37
2023-02-14T08:39:53.612Z,25.17
2023-02-14T08:42:20.654Z,21.67
2023-02-14T08:44:47.438Z,24.17
2023-02-14T08:47:14.116Z,22.83
2023-02-14T08:49:40.884Z,23.47
2023-02-14T08:52:07.572Z,23.00
2023-02-14T08:54:34.403Z,23.63
2023-02-14T08:57:03.446Z,22.30
2023-02-14T08:59:30.410Z,22.13
2023-02-14T09:01:57.062Z,18.50
2023-02-14T09:04:23.850Z,22.33
2023-02-14T09:06:50.604Z,22.27
2023-02-14T09:09:20.158Z,21.27
2023-02-14T09:11:46.905Z,18.90
2023-02-14T09:14:13.587Z,26.50
2023-02-14T09:16:40.963Z,19.77
2023-02-14T09:19:07.713Z,21.57
2023-02-14T09:21:34.482Z,20.53
2023-02-14T09:24:01.205Z,17.60
2023-02-14T09:26:28.788Z,20.70
2023-02-14T09:28:57.054Z,21.30
2023-02-14T09:31:25.237Z,19.17
2023-02-14T09:34:10.955Z,20.17
2023-02-14T09:36:37.774Z,20.20
2023-02-14T09:39:04.645Z,22.10
2023-02-14T09:41:58.288Z,21.63
2023-02-14T09:44:43.123Z,20.47
2023-02-14T09:47:36.840Z,18.87
2023-02-14T09:50:07.287Z,19.27
2023-02-14T09:52:34.463Z,16.20
2023-02-14T09:55:03.434Z,18.10
2023-02-14T09:57:45.243Z,18.93
2023-02-14T10:00:27.235Z,18.93
2023-02-14T10:03:07.405Z,19.43
2023-02-14T10:05:47.545Z,18.20
2023-02-14T10:08:23.117Z,15.17
2023-02-14T10:11:02.288Z,20.13
2023-02-14T10:13:29.089Z,16.30
2023-02-14T10:16:22.204Z,20.20
2023-02-14T10:18:57.937Z,15.27
2023-02-14T10:21:31.388Z,16.43
2023-02-14T10:24:14.640Z,17.43
2023-02-14T10:26:41.627Z,16.23
2023-02-14T10:29:19.213Z,17.83
2023-02-14T10:32:01.211Z,20.47
2023-02-14T10:34:33.201Z,18.40
2023-02-14T10:37:25.635Z,19.93
2023-02-14T10:40:24.697Z,17.30
2023-02-14T10:43:09.729Z,19.63
2023-02-14T10:45:54.613Z,21.00
2023-02-14T10:48:33.284Z,16.77
2023-02-14T10:51:33.454Z,20.13
2023-02-14T10:54:24.600Z,24.63
2023-02-14T10:57:06.312Z,20.00
2023-02-14T10:59:48.411Z,19.63
2023-02-14T11:02:18.138Z,18.83
2023-02-14T11:04:47.213Z,19.57
2023-02-14T11:07:15.724Z,20.53
2023-02-14T11:09:42.522Z,19.43
2023-02-14T11:12:09.579Z,18.23
2023-02-14T11:14:40.379Z,17.83
2023-02-14T11:17:30.197Z,19.73
2023-02-14T11:20:06.294Z,17.70
2023-02-14T11:22:35.294Z,16.97
2023-02-14T11:25:22.372Z,17.07
2023-02-14T11:27:55.953Z,19.83
2023-02-14T11:30:38.737Z,18.60
2023-02-14T11:33:06.640Z,17.60
2023-02-14T11:35:37.173Z,17.87
2023-02-14T11:38:06.964Z,19.57
2023-02-14T11:40:36.387Z,19.07
2023-02-14T11:43:15.039Z,20.07
2023-02-14T11:45:47.836Z,18.50
2023-02-14T11:48:37.774Z,17.50
2023-02-14T11:51:14.055Z,17.83
2023-02-14T11:53:47.372Z,21.70
2023-02-14T11:56:16.104Z,18.47
2023-02-14T11:58:59.700Z,22.63
2023-02-14T12:01:36.073Z,18.30
2023-02-14T12:04:14.257Z,19.47
2023-02-14T12:06:41.163Z,18.73
2023-02-14T12:09:35.186Z,16.73
2023-02-14T12:12:04.984Z,20.03
2023-02-14T12:14:35.504Z,19.97
2023-02-14T12:17:26.390Z,21.47
2023-02-14T12:20:05.985Z,17.80
2023-02-14T12:23:18.269Z,18.70
2023-02-14T12:26:03.252Z,17.87
2023-02-14T12:28:38.596Z,19.03
2023-02-14T12:31:12.688Z,18.37
2023-02-14T12:33:40.681Z,19.17
2023-02-14T12:36:36.866Z,18.50
2023-02-14T12:39:23.195Z,18.70
2023-02-14T12:42:12.810Z,17.00
2023-02-14T12:44:57.383Z,18.63
2023-02-14T12:47:38.874Z,20.30
2023-02-14T12:50:48.109Z,18.13
2023-02-14T12:53:39.325Z,17.47
2023-02-14T12:56:43.916Z,18.00
2023-02-14T12:59:17.869Z,18.70
2023-02-14T13:02:23.481Z,22.07
2023-02-14T13:05:21.144Z,18.80
2023-02-14T13:08:06.806Z,22.70
2023-02-14T13:10:45.408Z,19.00
2023-02-14T13:13:39.243Z,18.43
2023-02-14T13:16:14.602Z,20.10
2023-02-14T13:19:12.980Z,18.00
2023-02-14T13:21:41.123Z,19.60
2023-02-14T13:24:19.198Z,17.20
2023-02-14T13:26:53.692Z,19.17
2023-02-14T13:29:23.886Z,19.67
2023-02-14T13:31:56.674Z,20.70
2023-02-14T13:34:29.559Z,18.77
2023-02-14T13:36:58.784Z,19.63
2023-02-14T13:39:38.534Z,18.67
2023-02-14T13:42:06.759Z,20.47
2023-02-14T13:44:44.000Z,20.23
2023-02-14T13:47:27.242Z,21.30
2023-02-14T13:49:59.872Z,22.10
2023-02-14T13:52:45.573Z,18.73
2023-02-14T13:55:30.619Z,19.50
2023-02-14T13:58:16.154Z,21.97
2023-02-14T14:00:46.792Z,20.17
2023-02-14T14:03:34.055Z,21.20
2023-02-14T14:06:05.191Z,20.87
2023-02-14T14:08:32.052Z,18.83
2023-02-14T14:11:09.916Z,18.77
2023-02-14T14:13:42.366Z,20.63
2023-02-14T14:16:26.197Z,18.80
2023-02-14T14:19:28.194Z,19.07
2023-02-14T14:22:04.721Z,19.50
2023-02-14T14:24:33.595Z,21.97
2023-02-14T14:27:01.453Z,19.10
2023-02-14T14:29:35.576Z,20.57
2023-02-14T14:32:21.548Z,20.40
2023-02-14T14:34:59.098Z,20.60
2023-02-14T14:37:33.203Z,23.43
2023-02-14T14:40:02.343Z,19.67
2023-02-14T14:42:37.935Z,22.70
2023-02-14T14:45:09.108Z,21.03
2023-02-14T14:47:43.498Z,22.20
2023-02-14T14:50:18.424Z,25.83
2023-02-14T14:52:51.178Z,23.23
2023-02-14T14:55:27.977Z,23.23
2023-02-14T14:58:00.650Z,22.90
2023-02-14T15:00:30.110Z,21.57
2023-02-14T15:03:12.166Z,22.43
2023-02-14T15:05:41.885Z,21.63
2023-02-14T15:08:16.175Z,18.53
2023-02-14T15:10:43.594Z,23.37
2023-02-14T15:13:32.136Z,20.07
2023-02-14T15:15:59.640Z,21.80
2023-02-14T15:18:26.992Z,21.77
2023-02-14T15:20:54.097Z,20.23
2023-02-14T15:23:25.050Z,20.77
2023-02-14T15:25:52.443Z,18.63
2023-02-14T15:28:33.734Z,23.30
2023-02-14T15:31:03.858Z,22.40
2023-02-14T15:33:32.900Z,22.80
2023-02-14T15:36:04.521Z,23.37
2023-02-14T15:38:32.156Z,22.03
2023-02-14T15:41:00.197Z,22.70
2023-02-14T15:43:32.458Z,23.17
2023-02-14T15:46:15.989Z,23.47
2023-02-14T15:48:44.365Z,22.97
2023-02-14T15:51:19.198Z,25.13
2023-02-14T15:53:53.901Z,25.67
2023-02-14T15:56:43.005Z,23.53
2023-02-14T15:59:23.564Z,30.67
2023-02-14T16:02:20.546Z,24.80
2023-02-14T16:04:47.361Z,23.13
2023-02-14T16:07:29.201Z,25.00
2023-02-14T16:10:23.231Z,22.00
2023-02-14T16:12:57.874Z,22.53
2023-02-14T16:15:31.797Z,25.40
2023-02-14T16:17:59.260Z,24.60
2023-02-14T16:20:37.093Z,24.63
2023-02-14T16:23:20.533Z,24.27
2023-02-14T16:25:47.707Z,28.53
2023-02-14T16:28:14.890Z,24.40
2023-02-14T16:30:42.946Z,23.30
2023-02-14T16:33:21.498Z,26.70
2023-02-14T16:35:49.606Z,24.77
2023-02-14T16:38:19.273Z,22.57
2023-02-14T16:40:52.831Z,24.00
2023-02-14T16:43:20.599Z,26.87
2023-02-14T16:45:47.428Z,27.13
2023-02-14T16:48:15.875Z,23.73
2023-02-14T16:50:43.445Z,27.53
2023-02-14T16:53:25.774Z,24.67
2023-02-14T16:55:54.028Z,23.50
2023-02-14T16:58:24.806Z,25.07
2023-02-14T17:00:51.610Z,25.20
2023-02-14T17:03:18.569Z,25.07
2023-02-14T17:05:45.673Z,23.30
2023-02-14T17:08:15.005Z,23.37
2023-02-14T17:10:44.462Z,29.70
2023-02-14T17:13:11.666Z,24.93
2023-02-14T17:15:39.458Z,27.60
2023-02-14T17:18:11.451Z,25.00
2023-02-14T17:20:39.185Z,29.10
2023-02-14T17:23:05.930Z,26.83
2023-02-14T17:25:32.750Z,28.00
2023-02-14T17:28:01.011Z,28.47
2023-02-14T17:30:28.378Z,27.43
2023-02-14T17:32:55.189Z,31.83
2023-02-14T17:35:22.006Z,26.30
2023-02-14T17:37:48.721Z,28.33
2023-02-14T17:40:15.625Z,27.43
2023-02-14T17:42:42.444Z,29.33
2023-02-14T17:45:11.804Z,30.07
2023-02-14T17:47:40.944Z,27.50
2023-02-14T17:50:08.201Z,30.10
2023-02-14T17:52:35.070Z,26.47
2023-02-14T17:55:01.865Z,27.23
2023-02-14T17:57:28.662Z,28.43
2023-02-14T17:59:55.442Z,29.77
2023-02-14T18:02:22.199Z,30.80
2023-02-14T18:04:48.954Z,29.23
2023-02-14T18:07:16.049Z,25.97
2023-02-14T18:09:43.162Z,30.23
2023-02-14T18:12:14.480Z,31.90
2023-02-14T18:14:42.264Z,29.37
2023-02-14T18:17:09.123Z,23.77
2023-02-14T18:19:35.889Z,28.20
2023-02-14T18:22:02.757Z,34.87
2023-02-14T18:24:29.468Z,32.40
2023-02-14T18:26:56.284Z,28.53
2023-02-14T18:29:23.333Z,35.30
2023-02-14T18:31:50.182Z,33.73
2023-02-14T18:34:17.015Z,35.03
2023-02-14T18:36:43.877Z,35.73
2023-02-14T18:39:10.760Z,34.57
2023-02-14T18:41:37.537Z,37.47
2023-02-14T18:44:04.645Z,33.70
2023-02-14T18:46:33.830Z,33.27
2023-02-14T18:49:00.886Z,27.23
2023-02-14T18:51:30.298Z,30.50
2023-02-14T18:53:59.089Z,29.20
2023-02-14T18:56:29.128Z,32.67
2023-02-14T18:59:02.345Z,36.20
2023-02-14T19:01:31.893Z,32.23
2023-02-14T19:04:00.629Z,31.93
2023-02-14T19:06:30.053Z,29.53
2023-02-14T19:08:57.564Z,32.77
2023-02-14T19:11:27.304Z,32.20
2023-02-14T19:13:56.608Z,32.87
2023-02-14T19:16:26.840Z,36.53
2023-02-14T19:18:54.216Z,31.33
2023-02-14T19:21:26.333Z,33.17
2023-02-14T19:23:56.201Z,31.50
2023-02-14T19:26:25.913Z,32.23
2023-02-14T19:28:57.756Z,31.07
2023-02-14T19:31:25.441Z,42.00
2023-02-14T19:33:52.806Z,41.23
2023-02-14T19:36:21.887Z,31.10
2023-02-14T19:38:51.341Z,33.40
2023-02-14T19:41:21.463Z,34.63
2023-02-14T19:43:49.231Z,34.23
2023-02-14T19:46:17.331Z,35.93
2023-02-14T19:48:44.604Z,35.13
2023-02-14T19:51:21.749Z,34.50
2023-02-14T19:53:50.662Z,30.00
2023-02-14T19:56:26.442Z,30.97
2023-02-14T19:58:54.300Z,31.97
2023-02-14T20:01:46.386Z,41.23
2023-02-14T20:04:33.589Z,29.33
2023-02-14T20:07:00.406Z,28.90
2023-02-14T20:09:27.224Z,35.20
2023-02-14T20:11:55.977Z,33.80
2023-02-14T20:14:28.228Z,30.07
2023-02-14T20:16:56.789Z,30.33
2023-02-14T20:19:29.384Z,31.43
2023-02-14T20:21:56.564Z,30.37
2023-02-14T20:24:26.685Z,31.67
2023-02-14T20:26:53.937Z,29.97
2023-02-14T20:29:22.707Z,31.13
2023-02-14T20:31:52.774Z,33.43
2023-02-14T20:34:20.525Z,32.00
2023-02-14T20:36:52.923Z,31.10
2023-02-14T20:39:21.657Z,32.40
2023-02-14T20:41:50.186Z,29.07
2023-02-14T20:44:21.801Z,29.30
2023-02-14T20:46:51.700Z,29.50
2023-02-14T20:49:20.126Z,31.47
2023-02-14T20:51:49.728Z,32.43
2023-02-14T20:54:18.131Z,29.13
2023-02-14T20:56:45.810Z,30.23
2023-02-14T20:59:12.922Z,29.93
2023-02-14T21:01:40.018Z,33.97
2023-02-14T21:04:07.051Z,35.00
2023-02-14T21:06:35.565Z,31.03
2023-02-14T21:09:02.761Z,34.77
2023-02-14T21:11:29.704Z,30.93
2023-02-14T21:13:59.907Z,30.63
2023-02-14T21:16:28.730Z,31.30
2023-02-14T21:18:59.191Z,35.50
2023-02-14T21:21:36.269Z,29.77
2023-02-14T21:24:17.107Z,29.80
2023-02-14T21:26:44.590Z,34.27
2023-02-14T21:29:11.800Z,30.63
2023-02-14T21:31:39.142Z,33.90
2023-02-14T21:34:06.169Z,33.50
2023-02-14T21:36:36.814Z,33.80
2023-02-14T21:39:04.864Z,30.80
2023-02-14T21:41:32.268Z,31.80
2023-02-14T21:44:00.728Z,33.53
2023-02-14T21:46:31.360Z,30.97
2023-02-14T21:49:18.828Z,33.90
2023-02-14T21:51:46.738Z,34.67
2023-02-14T21:54:14.753Z,34.13
2023-02-14T21:56:42.429Z,33.17
2023-02-14T21:59:09.821Z,38.13
2023-02-14T22:01:38.898Z,28.73
2023-02-14T22:04:10.245Z,31.63
2023-02-14T22:06:39.288Z,28.73
2023-02-14T22:09:07.077Z,34.47
2023-02-14T22:11:34.322Z,33.53
2023-02-14T22:14:01.572Z,31.00
2023-02-14T22:16:28.544Z,35.33
2023-02-14T22:18:55.386Z,31.37
2023-02-14T22:21:24.874Z,33.77
2023-02-14T22:23:52.069Z,31.40
2023-02-14T22:26:23.653Z,29.80
2023-02-14T22:28:52.149Z,32.67
2023-02-14T22:31:19.893Z,36.33
2023-02-14T22:33:48.275Z,35.43
2023-02-14T22:36:15.219Z,29.17
2023-02-14T22:38:42.347Z,30.33
2023-02-14T22:41:11.481Z,34.17
2023-02-14T22:43:39.290Z,34.53
2023-02-14T22:46:28.052Z,30.23
2023-02-14T22:48:56.051Z,37.20
2023-02-14T22:51:37.758Z,31.40
2023-02-14T22:54:10.162Z,34.23
2023-02-14T22:56:39.828Z,27.10
2023-02-14T22:59:16.992Z,29.70
2023-02-14T23:01:44.190Z,28.50
2023-02-14T23:04:11.027Z,32.37
2023-02-14T23:06:38.526Z,33.53
2023-02-14T23:09:07.123Z,32.07
2023-02-14T23:11:36.462Z,35.00
2023-02-14T23:14:22.629Z,29.70
2023-02-14T23:17:08.335Z,23.53
2023-02-14T23:19:55.288Z,25.47
2023-02-14T23:22:23.512Z,24.63
2023-02-14T23:24:52.160Z,27.47
2023-02-14T23:27:22.493Z,24.97
2023-02-14T23:29:49.438Z,26.77
2023-02-14T23:32:16.403Z,22.17
2023-02-14T23:34:44.261Z,23.37
2023-02-14T23:37:12.289Z,23.43
2023-02-14T23:39:39.097Z,27.57
2023-02-14T23:42:08.215Z,28.90
2023-02-14T23:44:35.500Z,30.23
2023-02-14T23:47:05.073Z,29.23
2023-02-14T23:49:33.477Z,27.93
2023-02-14T23:52:00.315Z,27.63
2023-02-14T23:54:27.508Z,27.57
2023-02-14T23:56:54.949Z,27.23
2023-02-14T23:59:22.437Z,32.63
